createdAt,value
2022-09-14T00:01:31.512Z,2.97
2022-09-14T00:04:03.148Z,2.37
2022-09-14T00:06:32.354Z,3.03
2022-09-14T00:09:01.765Z,3.50
2022-09-14T00:11:32.250Z,3.10
2022-09-14T00:14:02.236Z,2.70
2022-09-14T00:16:32.354Z,2.80
2022-09-14T00:19:05.691Z,2.50
2022-09-14T00:21:34.870Z,2.60
2022-09-14T00:24:03.481Z,3.17
2022-09-14T00:26:31.521Z,3.07
2022-09-14T00:29:04.318Z,2.93
2022-09-14T00:31:33.807Z,2.57
2022-09-14T00:34:03.756Z,3.10
2022-09-14T00:36:33.155Z,2.87
2022-09-14T00:39:01.749Z,2.90
2022-09-14T00:41:32.942Z,2.10
2022-09-14T00:44:03.664Z,2.60
2022-09-14T00:46:33.526Z,3.57
2022-09-14T00:49:05.221Z,3.60
2022-09-14T00:51:34.980Z,2.47
2022-09-14T00:54:04.126Z,3.63
2022-09-14T00:56:32.644Z,2.67
2022-09-14T00:59:03.273Z,2.83
2022-09-14T01:01:31.279Z,2.70
2022-09-14T01:03:59.231Z,2.57
2022-09-14T01:06:37.726Z,3.60
2022-09-14T01:09:20.494Z,3.03
2022-09-14T01:12:01.983Z,3.20
2022-09-14T01:14:39.072Z,2.80
2022-09-14T01:17:12.616Z,2.27
2022-09-14T01:19:56.491Z,2.90
2022-09-14T01:22:36.105Z,3.03
2022-09-14T01:25:15.540Z,3.20
2022-09-14T01:27:46.394Z,2.93
2022-09-14T01:30:18.628Z,3.27
2022-09-14T01:32:52.080Z,3.40
2022-09-14T01:35:27.468Z,2.57
2022-09-14T01:38:00.790Z,3.27
2022-09-14T01:40:33.192Z,3.23
2022-09-14T01:43:07.889Z,3.87
2022-09-14T01:45:38.479Z,2.70
2022-09-14T01:48:10.289Z,3.50
2022-09-14T01:50:42.488Z,3.13
2022-09-14T01:53:14.102Z,3.80
2022-09-14T01:55:45.526Z,2.87
2022-09-14T01:58:19.439Z,3.00
2022-09-14T02:00:50.002Z,3.23
2022-09-14T02:03:22.971Z,3.13
2022-09-14T02:05:56.740Z,3.80
2022-09-14T02:08:27.218Z,3.80
2022-09-14T02:10:55.244Z,3.40
2022-09-14T02:13:25.060Z,3.17
2022-09-14T02:15:53.533Z,3.73
2022-09-14T02:18:21.941Z,2.67
2022-09-14T02:20:57.445Z,4.20
2022-09-14T02:23:25.456Z,3.07
2022-09-14T02:25:53.915Z,3.40
2022-09-14T02:28:21.883Z,3.00
2022-09-14T02:31:04.500Z,3.30
2022-09-14T02:33:41.546Z,3.30
2022-09-14T02:36:17.846Z,3.00
2022-09-14T02:38:52.181Z,4.07
2022-09-14T02:41:31.698Z,2.17
2022-09-14T02:44:06.697Z,3.50
2022-09-14T02:46:42.731Z,2.83
2022-09-14T02:49:17.172Z,3.40
2022-09-14T02:51:53.671Z,3.13
2022-09-14T02:54:29.409Z,3.87
2022-09-14T02:57:01.479Z,2.93
2022-09-14T02:59:29.812Z,2.83
2022-09-14T03:02:01.122Z,3.17
2022-09-14T03:04:29.323Z,2.93
2022-09-14T03:06:57.387Z,3.00
2022-09-14T03:09:25.412Z,3.23
2022-09-14T03:11:53.353Z,3.20
2022-09-14T03:14:21.350Z,3.53
2022-09-14T03:16:49.409Z,3.03
2022-09-14T03:19:18.820Z,3.70
2022-09-14T03:21:46.765Z,3.00
2022-09-14T03:24:14.734Z,3.37
2022-09-14T03:26:43.093Z,2.50
2022-09-14T03:29:11.474Z,3.57
2022-09-14T03:31:39.468Z,3.27
2022-09-14T03:34:07.524Z,4.03
2022-09-14T03:36:36.915Z,3.87
2022-09-14T03:39:05.029Z,3.70
2022-09-14T03:41:32.964Z,3.00
2022-09-14T03:44:00.920Z,3.40
2022-09-14T03:46:28.966Z,2.70
2022-09-14T03:48:57.084Z,3.47
2022-09-14T03:51:25.379Z,3.83
2022-09-14T03:53:54.983Z,2.90
2022-09-14T03:56:24.280Z,3.30
2022-09-14T03:58:53.104Z,3.07
2022-09-14T04:01:22.896Z,3.60
2022-09-14T04:03:51.783Z,3.33
2022-09-14T04:06:20.738Z,3.50
2022-09-14T04:08:49.100Z,2.93
2022-09-14T04:11:20.055Z,2.77
2022-09-14T04:13:48.746Z,3.40
2022-09-14T04:16:18.150Z,3.77
2022-09-14T04:18:46.165Z,3.30
2022-09-14T04:21:16.053Z,3.43
2022-09-14T04:24:10.509Z,3.63
2022-09-14T04:26:34.010Z,3.00
2022-09-14T04:29:02.156Z,3.50
2022-09-14T04:31:30.395Z,3.03
2022-09-14T04:33:58.622Z,3.90
2022-09-14T04:36:29.316Z,3.43
2022-09-14T04:38:58.652Z,3.43
2022-09-14T04:41:27.797Z,2.70
2022-09-14T04:43:58.499Z,3.67
2022-09-14T04:46:29.260Z,4.20
2022-09-14T04:48:57.362Z,3.40
2022-09-14T04:51:27.342Z,3.40
2022-09-14T04:53:57.919Z,2.77
2022-09-14T04:56:27.058Z,3.60
2022-09-14T04:59:01.747Z,3.80
2022-09-14T05:01:32.411Z,3.67
2022-09-14T05:04:00.610Z,4.20
2022-09-14T05:06:30.250Z,3.60
2022-09-14T05:08:59.969Z,4.17
2022-09-14T05:11:30.280Z,3.03
2022-09-14T05:14:00.810Z,3.43
2022-09-14T05:16:30.432Z,4.10
2022-09-14T05:19:01.887Z,3.67
2022-09-14T05:21:31.372Z,3.60
2022-09-14T05:24:01.463Z,3.50
2022-09-14T05:26:31.205Z,3.53
2022-09-14T05:29:03.039Z,3.33
2022-09-14T05:31:32.667Z,4.77
2022-09-14T05:34:01.460Z,4.00
2022-09-14T05:36:29.473Z,3.50
2022-09-14T05:38:59.124Z,3.13
2022-09-14T05:41:27.099Z,3.30
2022-09-14T05:43:55.157Z,3.67
2022-09-14T05:46:24.594Z,3.50
2022-09-14T05:48:52.629Z,3.23
2022-09-14T05:51:22.255Z,3.13
2022-09-14T05:53:50.930Z,3.10
2022-09-14T05:56:20.247Z,3.50
2022-09-14T05:58:49.192Z,4.13
2022-09-14T06:01:19.339Z,4.20
2022-09-14T06:03:49.624Z,3.63
2022-09-14T06:06:19.868Z,3.90
2022-09-14T06:08:50.139Z,3.47
2022-09-14T06:11:19.939Z,3.93
2022-09-14T06:13:48.525Z,5.30
2022-09-14T06:16:18.078Z,3.90
2022-09-14T06:18:48.680Z,4.23
2022-09-14T06:21:19.300Z,4.13
2022-09-14T06:23:48.739Z,4.17
2022-09-14T06:26:17.518Z,4.00
2022-09-14T06:28:45.887Z,4.90
2022-09-14T06:31:15.045Z,4.27
2022-09-14T06:33:45.612Z,3.73
2022-09-14T06:36:17.973Z,5.20
2022-09-14T06:38:46.690Z,6.80
2022-09-14T06:41:18.030Z,5.70
2022-09-14T06:43:46.314Z,5.20
2022-09-14T06:46:15.799Z,4.90
2022-09-14T06:48:45.933Z,4.23
2022-09-14T06:51:18.059Z,4.13
2022-09-14T06:53:47.181Z,4.23
2022-09-14T06:56:15.484Z,4.13
2022-09-14T06:58:44.113Z,3.40
2022-09-14T07:01:15.359Z,3.50
2022-09-14T07:03:44.730Z,3.97
2022-09-14T07:06:15.947Z,4.57
2022-09-14T07:08:44.743Z,5.20
2022-09-14T07:11:15.444Z,5.13
2022-09-14T07:13:43.421Z,3.60
2022-09-14T07:16:11.762Z,4.73
2022-09-14T07:18:40.730Z,3.17
2022-09-14T07:21:11.243Z,3.63
2022-09-14T07:23:43.039Z,3.77
2022-09-14T07:26:12.977Z,5.53
2022-09-14T07:28:42.157Z,4.10
2022-09-14T07:31:18.856Z,3.53
2022-09-14T07:33:47.086Z,3.90
2022-09-14T07:36:15.723Z,4.10
2022-09-14T07:38:53.213Z,3.63
2022-09-14T07:41:22.205Z,4.60
2022-09-14T07:43:51.094Z,3.20
2022-09-14T07:46:19.590Z,3.97
2022-09-14T07:48:48.933Z,3.67
2022-09-14T07:51:17.989Z,3.33
2022-09-14T07:53:47.357Z,4.00
2022-09-14T07:56:16.724Z,3.70
2022-09-14T07:58:45.217Z,2.83
2022-09-14T08:01:15.284Z,3.70
2022-09-14T08:03:44.519Z,3.60
2022-09-14T08:06:14.636Z,3.50
2022-09-14T08:08:44.643Z,3.27
2022-09-14T08:11:16.491Z,4.33
2022-09-14T08:13:46.167Z,3.90
2022-09-14T08:16:15.156Z,3.50
2022-09-14T08:18:43.253Z,3.70
2022-09-14T08:21:12.585Z,3.50
2022-09-14T08:23:41.513Z,2.60
2022-09-14T08:26:11.536Z,3.30
2022-09-14T08:28:41.267Z,3.03
2022-09-14T08:31:10.718Z,3.70
2022-09-14T08:33:40.557Z,3.77
2022-09-14T08:36:09.815Z,4.53
2022-09-14T08:38:38.295Z,2.93
2022-09-14T08:41:13.347Z,2.80
2022-09-14T08:43:42.798Z,3.57
2022-09-14T08:46:16.588Z,3.20
2022-09-14T08:48:48.701Z,3.60
2022-09-14T08:51:18.082Z,2.97
2022-09-14T08:53:47.010Z,3.27
2022-09-14T08:56:18.826Z,2.93
2022-09-14T08:59:03.089Z,3.03
2022-09-14T09:01:41.663Z,3.43
2022-09-14T09:04:23.315Z,3.37
2022-09-14T09:06:59.366Z,3.33
2022-09-14T09:09:34.683Z,3.00
2022-09-14T09:12:03.067Z,3.00
2022-09-14T09:14:36.414Z,3.00
2022-09-14T09:17:11.484Z,3.50
2022-09-14T09:19:46.499Z,3.03
2022-09-14T09:22:22.881Z,3.20
2022-09-14T09:24:54.663Z,3.33
2022-09-14T09:27:24.477Z,2.80
2022-09-14T09:29:53.901Z,2.77
2022-09-14T09:32:24.639Z,3.67
2022-09-14T09:34:53.381Z,2.83
2022-09-14T09:37:23.745Z,3.37
2022-09-14T09:39:52.246Z,3.40
2022-09-14T09:42:23.527Z,2.70
2022-09-14T09:45:01.765Z,3.13
2022-09-14T09:47:34.216Z,3.20
2022-09-14T09:50:04.654Z,3.50
2022-09-14T09:52:34.689Z,2.67
2022-09-14T09:55:06.131Z,3.50
2022-09-14T09:57:35.452Z,3.43
2022-09-14T10:00:19.418Z,3.23
2022-09-14T10:02:48.376Z,3.63
2022-09-14T10:05:24.668Z,3.70
2022-09-14T10:07:56.881Z,2.70
2022-09-14T10:10:39.556Z,3.27
2022-09-14T10:13:19.336Z,3.03
2022-09-14T10:15:49.611Z,3.60
2022-09-14T10:18:19.631Z,3.80
2022-09-14T10:21:08.015Z,4.33
2022-09-14T10:23:37.483Z,2.40
2022-09-14T10:26:27.917Z,2.80
2022-09-14T10:28:56.158Z,3.00
2022-09-14T10:31:32.061Z,2.90
2022-09-14T10:34:01.214Z,2.40
2022-09-14T10:36:31.587Z,2.80
2022-09-14T10:39:07.550Z,2.67
2022-09-14T10:41:43.593Z,2.37
2022-09-14T10:44:51.800Z,3.00
2022-09-14T10:47:47.018Z,2.53
2022-09-14T10:50:32.396Z,2.60
2022-09-14T10:53:11.681Z,2.30
2022-09-14T10:55:47.083Z,2.33
2022-09-14T10:58:29.073Z,2.80
2022-09-14T11:01:10.133Z,2.60
2022-09-14T11:03:54.666Z,2.57
2022-09-14T11:06:32.961Z,2.27
2022-09-14T11:09:04.253Z,2.23
2022-09-14T11:11:46.875Z,2.43
2022-09-14T11:14:40.466Z,2.53
2022-09-14T11:17:28.756Z,3.10
2022-09-14T11:20:06.074Z,3.23
2022-09-14T11:22:41.880Z,2.40
2022-09-14T11:25:14.436Z,2.10
2022-09-14T11:27:45.480Z,3.30
2022-09-14T11:30:17.590Z,3.13
2022-09-14T11:32:50.074Z,2.00
2022-09-14T11:35:25.371Z,2.43
2022-09-14T11:37:56.998Z,2.67
2022-09-14T11:40:30.032Z,2.77
2022-09-14T11:43:00.760Z,3.33
2022-09-14T11:45:32.911Z,2.93
2022-09-14T11:48:40.847Z,2.53
2022-09-14T11:51:07.179Z,2.90
2022-09-14T11:53:35.876Z,2.53
2022-09-14T11:56:05.206Z,2.80
2022-09-14T11:58:33.661Z,3.20
2022-09-14T12:01:26.523Z,3.17
2022-09-14T12:04:14.398Z,3.40
2022-09-14T12:06:55.220Z,3.40
2022-09-14T12:09:50.775Z,3.00
2022-09-14T12:12:39.882Z,3.20
2022-09-14T12:15:22.527Z,2.40
2022-09-14T12:17:51.740Z,3.53
2022-09-14T12:20:43.045Z,2.57
2022-09-14T12:23:33.898Z,2.57
2022-09-14T12:26:15.868Z,2.57
2022-09-14T12:28:49.121Z,2.70
2022-09-14T12:31:56.208Z,4.70
2022-09-14T12:34:25.401Z,3.33
2022-09-14T12:37:28.352Z,2.57
2022-09-14T12:40:37.283Z,2.70
2022-09-14T12:43:48.656Z,2.83
2022-09-14T12:46:34.345Z,3.00
2022-09-14T12:49:03.795Z,3.13
2022-09-14T12:51:42.251Z,3.37
2022-09-14T12:54:22.165Z,2.30
2022-09-14T12:57:03.866Z,3.03
2022-09-14T12:59:41.302Z,2.80
2022-09-14T13:02:41.544Z,2.67
2022-09-14T13:05:15.828Z,2.13
2022-09-14T13:07:44.502Z,2.53
2022-09-14T13:10:31.543Z,2.47
2022-09-14T13:13:02.955Z,2.10
2022-09-14T13:15:34.280Z,2.50
2022-09-14T13:18:04.873Z,2.10
2022-09-14T13:20:35.008Z,2.40
2022-09-14T13:23:03.523Z,2.47
2022-09-14T13:25:34.757Z,2.43
2022-09-14T13:28:06.968Z,2.20
2022-09-14T13:30:36.574Z,2.90
2022-09-14T13:33:05.297Z,2.73
2022-09-14T13:35:36.746Z,2.73
2022-09-14T13:38:10.794Z,2.50
2022-09-14T13:40:38.944Z,2.20
2022-09-14T13:43:08.650Z,2.07
2022-09-14T13:45:39.808Z,2.60
2022-09-14T13:48:08.058Z,2.23
2022-09-14T13:50:36.259Z,2.00
2022-09-14T13:53:04.728Z,2.73
2022-09-14T13:55:44.907Z,2.50
2022-09-14T13:58:21.323Z,2.37
2022-09-14T14:00:58.391Z,1.70
2022-09-14T14:03:33.102Z,2.37
2022-09-14T14:06:04.799Z,2.60
2022-09-14T14:08:36.813Z,2.03
2022-09-14T14:11:07.430Z,2.00
2022-09-14T14:13:38.609Z,1.53
2022-09-14T14:16:19.044Z,2.57
2022-09-14T14:18:54.991Z,1.50
2022-09-14T14:21:31.725Z,1.73
2022-09-14T14:24:27.099Z,2.40
2022-09-14T14:26:57.193Z,2.37
2022-09-14T14:29:27.533Z,2.73
2022-09-14T14:31:56.915Z,1.87
2022-09-14T14:34:27.164Z,1.80
2022-09-14T14:36:55.551Z,1.53
2022-09-14T14:39:27.444Z,2.13
2022-09-14T14:41:55.981Z,1.67
2022-09-14T14:44:28.276Z,2.10
2022-09-14T14:46:56.925Z,2.30
2022-09-14T14:49:25.587Z,1.80
2022-09-14T14:51:54.268Z,1.80
2022-09-14T14:54:22.216Z,1.60
2022-09-14T14:56:52.340Z,2.10
2022-09-14T14:59:33.616Z,1.93
2022-09-14T15:02:01.943Z,2.63
2022-09-14T15:04:30.526Z,1.73
2022-09-14T15:06:58.480Z,1.93
2022-09-14T15:09:28.400Z,1.60
2022-09-14T15:11:56.827Z,1.27
2022-09-14T15:14:27.785Z,1.47
2022-09-14T15:16:59.981Z,1.57
2022-09-14T15:19:28.360Z,1.90
2022-09-14T15:22:00.687Z,2.00
2022-09-14T15:24:29.905Z,2.20
2022-09-14T15:26:58.189Z,1.50
2022-09-14T15:29:27.519Z,1.40
2022-09-14T15:31:56.031Z,1.70
2022-09-14T15:34:24.202Z,1.20
2022-09-14T15:36:54.046Z,1.87
2022-09-14T15:39:23.579Z,1.23
2022-09-14T15:41:51.608Z,1.40
2022-09-14T15:44:20.010Z,1.30
2022-09-14T15:46:49.743Z,1.60
2022-09-14T15:49:19.651Z,1.97
2022-09-14T15:51:50.027Z,1.40
2022-09-14T15:54:18.842Z,2.00
2022-09-14T15:56:50.621Z,1.40
2022-09-14T15:59:19.685Z,1.57
2022-09-14T16:01:49.306Z,2.00
2022-09-14T16:04:17.540Z,1.30
2022-09-14T16:06:46.096Z,1.53
2022-09-14T16:09:15.890Z,1.47
2022-09-14T16:11:44.030Z,1.50
2022-09-14T16:14:12.490Z,1.70
2022-09-14T16:16:41.538Z,1.50
2022-09-14T16:19:13.817Z,1.57
2022-09-14T16:21:42.737Z,1.17
2022-09-14T16:24:14.205Z,1.30
2022-09-14T16:26:42.627Z,1.17
2022-09-14T16:29:14.977Z,1.77
2022-09-14T16:31:44.722Z,1.40
2022-09-14T16:34:16.083Z,1.93
2022-09-14T16:36:45.029Z,1.43
2022-09-14T16:39:17.338Z,1.40
2022-09-14T16:41:45.834Z,1.50
2022-09-14T16:44:16.692Z,3.73
2022-09-14T16:46:44.881Z,2.93
2022-09-14T16:49:14.183Z,1.70
2022-09-14T16:51:42.321Z,1.63
2022-09-14T16:54:13.093Z,3.30
2022-09-14T16:56:41.339Z,1.60
2022-09-14T16:59:09.845Z,1.60
2022-09-14T17:01:39.719Z,1.73
2022-09-14T17:04:10.323Z,2.10
2022-09-14T17:06:42.167Z,1.83
2022-09-14T17:09:12.221Z,1.90
2022-09-14T17:11:41.474Z,2.17
2022-09-14T17:14:10.825Z,2.10
2022-09-14T17:16:38.865Z,2.60
2022-09-14T17:19:06.897Z,2.60
2022-09-14T17:21:37.965Z,2.90
2022-09-14T17:24:09.235Z,1.90
2022-09-14T17:26:37.787Z,2.10
2022-09-14T17:29:07.250Z,2.20
2022-09-14T17:31:38.125Z,1.90
2022-09-14T17:34:08.265Z,1.90
2022-09-14T17:36:36.745Z,2.07
2022-09-14T17:39:10.632Z,2.23
2022-09-14T17:41:42.753Z,1.83
2022-09-14T17:44:12.850Z,1.40
2022-09-14T17:46:50.827Z,1.87
2022-09-14T17:49:20.807Z,1.90
2022-09-14T17:51:49.185Z,2.30
2022-09-14T17:54:19.120Z,1.50
2022-09-14T17:56:48.879Z,1.70
2022-09-14T17:59:20.326Z,1.67
2022-09-14T18:01:48.998Z,2.13
2022-09-14T18:04:17.746Z,1.87
2022-09-14T18:06:47.997Z,1.80
2022-09-14T18:09:18.323Z,2.00
2022-09-14T18:11:49.016Z,2.20
2022-09-14T18:14:17.438Z,1.83
2022-09-14T18:16:46.126Z,1.90
2022-09-14T18:19:16.667Z,2.30
2022-09-14T18:21:48.918Z,2.07
2022-09-14T18:24:18.957Z,1.87
2022-09-14T18:26:48.751Z,1.80
2022-09-14T18:29:18.654Z,1.83
2022-09-14T18:31:47.173Z,1.93
2022-09-14T18:34:15.206Z,2.17
2022-09-14T18:36:43.082Z,2.00
2022-09-14T18:39:12.523Z,2.80
2022-09-14T18:41:41.382Z,2.23
2022-09-14T18:44:10.756Z,2.27
2022-09-14T18:46:39.061Z,2.53
2022-09-14T18:49:07.064Z,2.67
2022-09-14T18:51:34.995Z,2.47
2022-09-14T18:54:04.986Z,3.73
2022-09-14T18:56:34.162Z,4.73
2022-09-14T18:59:02.839Z,2.53
2022-09-14T19:01:33.745Z,2.20
2022-09-14T19:04:03.743Z,1.80
2022-09-14T19:06:32.058Z,2.57
2022-09-14T19:09:00.093Z,1.73
2022-09-14T19:11:30.919Z,1.93
2022-09-14T19:14:01.327Z,2.00
2022-09-14T19:16:31.380Z,2.10
2022-09-14T19:18:59.839Z,2.53
2022-09-14T19:21:31.141Z,2.17
2022-09-14T19:24:00.737Z,2.40
2022-09-14T19:26:31.045Z,2.40
2022-09-14T19:29:01.687Z,2.33
2022-09-14T19:31:31.380Z,2.83
2022-09-14T19:33:59.708Z,2.00
2022-09-14T19:36:28.636Z,2.70
2022-09-14T19:38:58.048Z,1.97
2022-09-14T19:41:26.214Z,2.37
2022-09-14T19:43:54.181Z,2.33
2022-09-14T19:46:24.373Z,2.97
2022-09-14T19:48:54.239Z,3.33
2022-09-14T19:51:25.275Z,7.97
2022-09-14T19:53:55.192Z,2.90
2022-09-14T19:56:25.710Z,2.70
2022-09-14T19:58:55.409Z,2.77
2022-09-14T20:01:25.538Z,2.37
2022-09-14T20:03:55.533Z,1.83
2022-09-14T20:06:26.089Z,2.50
2022-09-14T20:08:57.094Z,2.63
2022-09-14T20:11:26.851Z,1.83
2022-09-14T20:13:55.624Z,2.17
2022-09-14T20:16:26.300Z,1.90
2022-09-14T20:18:56.929Z,2.20
2022-09-14T20:21:26.748Z,2.13
2022-09-14T20:24:14.559Z,2.70
2022-09-14T20:26:43.490Z,1.97
2022-09-14T20:29:11.538Z,2.47
2022-09-14T20:31:39.751Z,2.10
2022-09-14T20:34:09.262Z,2.23
2022-09-14T20:36:37.472Z,2.47
2022-09-14T20:39:06.096Z,2.60
2022-09-14T20:41:35.799Z,2.90
2022-09-14T20:44:04.883Z,3.03
2022-09-14T20:46:35.986Z,2.37
2022-09-14T20:49:05.759Z,2.57
2022-09-14T20:51:36.086Z,2.50
2022-09-14T20:54:04.958Z,2.07
2022-09-14T20:56:34.674Z,2.03
2022-09-14T20:59:07.503Z,2.57
2022-09-14T21:01:39.227Z,2.70
2022-09-14T21:04:09.608Z,2.90
2022-09-14T21:06:40.664Z,2.53
2022-09-14T21:09:10.355Z,2.63
2022-09-14T21:11:39.174Z,2.10
2022-09-14T21:14:07.751Z,2.40
2022-09-14T21:16:38.164Z,2.27
2022-09-14T21:19:09.610Z,2.10
2022-09-14T21:21:39.497Z,2.97
2022-09-14T21:24:10.424Z,1.70
2022-09-14T21:26:42.529Z,1.97
2022-09-14T21:29:16.355Z,1.90
2022-09-14T21:31:44.431Z,2.27
2022-09-14T21:34:13.515Z,2.67
2022-09-14T21:36:44.356Z,2.30
2022-09-14T21:39:13.939Z,2.43
2022-09-14T21:41:44.192Z,2.37
2022-09-14T21:44:12.377Z,2.87
2022-09-14T21:46:40.513Z,1.80
2022-09-14T21:49:08.801Z,2.07
2022-09-14T21:51:37.866Z,1.83
2022-09-14T21:54:09.286Z,2.37
2022-09-14T21:56:40.484Z,2.43
2022-09-14T21:59:11.569Z,2.33
2022-09-14T22:01:39.757Z,2.03
2022-09-14T22:04:08.009Z,2.20
2022-09-14T22:06:36.656Z,2.10
2022-09-14T22:09:06.304Z,1.97
2022-09-14T22:11:37.129Z,2.07
2022-09-14T22:14:07.443Z,2.30
2022-09-14T22:16:37.846Z,3.00
2022-09-14T22:19:08.768Z,2.97
2022-09-14T22:21:38.522Z,2.43
2022-09-14T22:24:10.920Z,2.63
2022-09-14T22:26:40.150Z,2.20
2022-09-14T22:29:09.881Z,2.03
2022-09-14T22:31:39.840Z,2.40
2022-09-14T22:34:09.904Z,2.40
2022-09-14T22:36:38.610Z,2.33
2022-09-14T22:39:09.758Z,2.67
2022-09-14T22:41:38.549Z,2.37
2022-09-14T22:44:07.226Z,1.77
2022-09-14T22:46:36.302Z,2.17
2022-09-14T22:49:04.410Z,2.63
2022-09-14T22:51:32.732Z,2.50
2022-09-14T22:54:00.903Z,2.60
2022-09-14T22:56:33.133Z,3.23
2022-09-14T22:59:02.191Z,2.90
2022-09-14T23:01:32.483Z,3.07
2022-09-14T23:04:02.543Z,3.33
2022-09-14T23:06:32.876Z,2.40
2022-09-14T23:09:01.465Z,1.90
2022-09-14T23:11:31.527Z,2.10
2022-09-14T23:13:59.497Z,2.43
2022-09-14T23:16:29.643Z,2.30
2022-09-14T23:18:59.260Z,2.87
2022-09-14T23:21:28.189Z,2.23
2022-09-14T23:23:58.525Z,3.23
2022-09-14T23:26:27.048Z,2.40
2022-09-14T23:28:58.040Z,2.67
2022-09-14T23:31:26.408Z,2.73
2022-09-14T23:33:56.069Z,1.90
2022-09-14T23:36:24.767Z,2.20
2022-09-14T23:38:53.246Z,2.87
2022-09-14T23:41:22.726Z,2.40
2022-09-14T23:43:51.210Z,2.40
2022-09-14T23:46:20.843Z,2.03
2022-09-14T23:48:49.205Z,2.30
2022-09-14T23:51:18.196Z,2.40
2022-09-14T23:53:46.581Z,2.43
2022-09-14T23:56:15.172Z,1.90
2022-09-14T23:58:43.541Z,2.73
